Monday, February 19, 2018, 4:57 AM EST
Back to Local

KEWB, New Bedford Regional Airport

Location: New Bedford, MA, United States Lat: 41.683
Local Time: 4:57 AM EST ( 9:57 GMT) Lon: -70.967
Time Zone: US/Eastern Elev: 78 ft

Show me the last for .
Show Decoded

2018-02-19 03:53 METAR KEWB 190853Z AUTO 00000KT 10SM CLR M04/M04 A3053 RMK AO2 SLP339 I3001
                 T10391044 58001 =
2018-02-19 02:53 METAR KEWB 190753Z AUTO 00000KT 10SM CLR M04/M05 A3053 RMK AO2 SLP340 I1001
                 T10391050 =
2018-02-19 01:53 METAR KEWB 190653Z AUTO 00000KT 10SM CLR M04/M04 A3054 RMK AO2 SLP341 T10391044
                 =
2018-02-19 00:53 METAR KEWB 190553Z AUTO 00000KT 10SM CLR M03/M04 A3053 RMK AO2 SLP340 T10331044
                 10017 21039 50007 =
2018-02-18 23:53 METAR KEWB 190453Z AUTO 00000KT 10SM CLR M02/M04 A3055 RMK AO2 SLP345 T10221039
                 400721033 =
2018-02-18 22:53 METAR KEWB 190353Z AUTO 00000KT 10SM CLR M01/M04 A3054 RMK AO2 SLP341 T10061039
                 =
2018-02-18 21:53 METAR KEWB 190253Z 00000KT 10SM CLR 00/M04 A3051 RMK AO2 SLP333 T00001039 51031
                 =
2018-02-18 20:53 METAR KEWB 190153Z 29004KT 10SM CLR 00/M04 A3049 RMK AO2 SLP326 T00001039 =
2018-02-18 19:53 METAR KEWB 190053Z 28004KT 10SM CLR 01/M03 A3046 RMK AO2 SLP314 T00061033 =
2018-02-18 18:53 METAR KEWB 182353Z 00000KT 10SM CLR 01/M03 A3042 RMK AO2 SLP302 T00061033 10072
                 20000 53039 =
2018-02-18 17:53 METAR KEWB 182253Z 29006KT 10SM CLR 03/M04 A3037 RMK AO2 SLP284 T00281044 =
2018-02-18 16:53 METAR KEWB 182153Z 31003KT 10SM CLR 06/M04 A3033 RMK AO2 SLP271 T00561044 =
2018-02-18 15:53 METAR KEWB 182053Z 29008KT 10SM CLR 07/M04 A3030 RMK AO2 SLP262 T00721044 51032
                 =
2018-02-18 14:53 METAR KEWB 181953Z 29007KT 10SM CLR 07/M05 A3029 RMK AO2 SLP259 T00671050 =
2018-02-18 13:53 METAR KEWB 181853Z 32007G17KT 10SM FEW046 07/M04 A3026 RMK AO2 SLP246 T00671039
                 =
2018-02-18 12:53 METAR KEWB 181753Z 30007KT 270V330 10SM FEW041 07/M02 A3021 RMK AO2 SLP230 60001
                 T00671017 10067 20006 53027 =
2018-02-18 11:53 METAR KEWB 181653Z 36009G19KT 330V050 10SM FEW034 05/M02 A3016 RMK AO2 SLP213
                 T00501022 =
2018-02-18 10:53 METAR KEWB 181553Z 33010G22KT 300V010 10SM CLR 04/M02 A3017 RMK AO2 SLP215
                 T00391017 =
2018-02-18 09:53 METAR KEWB 181453Z VRB06G18KT 10SM CLR 03/00 A3013 RMK AO2 SLP203 60001
                 T00280000 53039 =
2018-02-18 08:53 METAR KEWB 181353Z 30010KT 10SM CLR 02/00 A3007 RMK AO2 PRESRR SLP182 T00170000
                 =
2018-02-18 08:04 METAR KEWB 181304Z 31010G16KT 10SM SCT010 01/00 A3002 RMK AO2 T00110000 =
2018-02-18 07:53 METAR KEWB 181253Z 31010G16KT 10SM BKN010 01/00 A3001 RMK AO2 SNB1155E08 CIG
                 007V014 SLP163 P0001 T00060000 =
2018-02-18 06:53 METAR KEWB 181153Z VRB06G15KT 5SM BR BKN009 OVC043 01/00 A2996 RMK AO2 SNE48
                 SLP145 P0000 60024 70060 T00060000 10011 20006 53035 =
2018-02-18 06:15 METAR KEWB 181115Z 31008G16KT 6SM -SN BR OVC006 01/01 A2992 RMK AO2 P0000
                 T00060006 =
2018-02-18 05:53 METAR KEWB 181053Z AUTO 30007KT 2 1/2SM -SN BR BKN005 BKN010 OVC017 01/01 A2990
                 RMK AO2 RAE21SNB21 SLP125 P0006 T00060006 =
2018-02-18 05:51 METAR KEWB 181051Z AUTO 30007KT 2 1/2SM -SN BR BKN005 BKN010 OVC017 01/01 A2990
                 RMK AO2 RAE21SNB21 P0006 =

Support USWX by starting your Amazon purchase here.